Main page
METAR-TAF:

METAR-TAF

Airports :

Leuchars Station

Leuchars, Scotland

latitude: 56-23N, longitude: 002-52W, elevation: 12 m

Current weather observation

The report was made 48 minutes ago, at 23:50 UTC
Wind 7 kt from the East/Southeast
Temperature 9°C
Humidity 87%
Pressure 1028 hPa
Visibility 10 km or more
Overcast at a height of 700 ft

METAR: EGQL 232350Z 11007KT 9999 OVC007 09/07 Q1028 GRN

Time: 01:38 (00:38 UTC)

Forecast

The report was made 1 hour and 49 minutes ago, at 22:49 UTC
Forecast valid from 24 at 00 UTC to 24 at 09 UTC
Wind 5 kt from the East/Southeast
Visibility 10 km or more
Broken clouds at a height of 1000 ft
Temporary
from 24 at 00 UTC to 24 at 09 UTC
Visibility: 4000 m
Broken clouds at a height of 300 ft
mist
Probability 30%
from 24 at 00 UTC to 24 at 06 UTC
Visibility: 0400 m
fog

TAF: EGQL 232249Z 2400/2409 12005KT 9999 BKN010 TEMPO 2400/2409 4000 BR BKN003 PROB30 2400/2406 0400 FG VV///

Weather observations and forecasts of more than 4000 airports (METAR and TAF reports).

The available stations are represented by yellow and red dots on the map.

Hover mouse over dot to see the name of the station.

Then click to see weather observations and forecasts.

To change the map : click on the green buttons with a black cross to zoom in, on the green button with a dash to zoom out, or on the green arrows for adjacent maps.


METAR-TAF: